createdAt,value
2023-02-18T00:02:16.169Z,2.17
2023-02-18T00:05:19.383Z,4.33
2023-02-18T00:08:23.207Z,3.33
2023-02-18T00:11:27.816Z,2.57
2023-02-18T00:14:30.612Z,2.17
2023-02-18T00:17:33.978Z,2.23
2023-02-18T00:20:37.131Z,2.20
2023-02-18T00:23:39.923Z,2.23
2023-02-18T00:26:44.568Z,2.30
2023-02-18T00:29:47.361Z,2.33
2023-02-18T00:32:50.102Z,2.43
2023-02-18T00:35:52.868Z,2.33
2023-02-18T00:38:57.213Z,2.33
2023-02-18T00:42:01.297Z,1.60
2023-02-18T00:45:04.069Z,2.03
2023-02-18T00:48:06.985Z,2.03
2023-02-18T00:51:10.158Z,1.93
2023-02-18T00:54:12.961Z,2.40
2023-02-18T00:57:17.042Z,1.60
2023-02-18T01:00:20.278Z,2.17
2023-02-18T01:03:23.871Z,1.70
2023-02-18T01:06:26.704Z,1.87
2023-02-18T01:09:29.462Z,2.47
2023-02-18T01:12:33.997Z,1.57
2023-02-18T01:15:36.859Z,1.53
2023-02-18T01:18:40.307Z,1.40
2023-02-18T01:21:43.298Z,1.57
2023-02-18T01:24:46.566Z,2.07
2023-02-18T01:27:50.787Z,1.80
2023-02-18T01:30:54.510Z,1.67
2023-02-18T01:33:57.368Z,1.80
2023-02-18T01:37:00.654Z,2.00
2023-02-18T01:40:03.626Z,1.43
2023-02-18T01:43:07.707Z,1.67
2023-02-18T01:46:17.131Z,1.60
2023-02-18T01:49:23.651Z,1.73
2023-02-18T01:52:32.359Z,1.73
2023-02-18T01:55:36.143Z,1.63
2023-02-18T01:58:40.754Z,1.70
2023-02-18T02:01:46.018Z,2.10
2023-02-18T02:04:50.051Z,1.70
2023-02-18T02:07:54.830Z,1.83
2023-02-18T02:11:13.482Z,2.00
2023-02-18T02:14:34.877Z,2.00
2023-02-18T02:17:47.617Z,2.00
2023-02-18T02:21:15.501Z,2.40
2023-02-18T02:24:40.207Z,2.13
2023-02-18T02:28:21.557Z,2.17
2023-02-18T02:31:54.363Z,1.97
2023-02-18T02:35:03.856Z,2.03
2023-02-18T02:38:13.524Z,2.07
2023-02-18T02:41:29.392Z,2.17
2023-02-18T02:44:39.681Z,1.30
2023-02-18T02:47:49.241Z,1.60
2023-02-18T02:51:01.757Z,1.40
2023-02-18T02:54:14.733Z,1.70
2023-02-18T02:57:46.370Z,1.30
2023-02-18T03:01:00.229Z,1.60
2023-02-18T03:04:30.290Z,1.27
2023-02-18T03:07:51.996Z,1.53
2023-02-18T03:11:01.134Z,1.00
2023-02-18T03:14:09.661Z,1.20
2023-02-18T03:17:20.231Z,1.47
2023-02-18T03:20:28.135Z,1.10
2023-02-18T03:23:38.001Z,1.27
2023-02-18T03:26:46.234Z,1.47
2023-02-18T03:29:54.098Z,1.00
2023-02-18T03:33:00.241Z,0.93
2023-02-18T03:36:04.098Z,2.03
2023-02-18T03:39:12.279Z,1.10
2023-02-18T03:42:15.046Z,1.00
2023-02-18T03:45:17.886Z,1.10
2023-02-18T03:48:20.625Z,1.10
2023-02-18T03:51:23.476Z,0.90
2023-02-18T03:54:27.524Z,1.30
2023-02-18T03:57:30.245Z,0.97
2023-02-18T04:00:33.415Z,1.20
2023-02-18T04:03:36.195Z,1.23
2023-02-18T04:06:39.037Z,1.10
2023-02-18T04:09:43.154Z,1.20
2023-02-18T04:12:45.885Z,0.70
2023-02-18T04:15:50.769Z,1.20
2023-02-18T04:18:53.531Z,1.20
2023-02-18T04:21:56.386Z,0.97
2023-02-18T04:25:00.625Z,1.47
2023-02-18T04:28:03.422Z,1.97
2023-02-18T04:31:06.497Z,1.57
2023-02-18T04:34:09.322Z,1.53
2023-02-18T04:37:12.287Z,1.20
2023-02-18T04:40:16.686Z,1.40
2023-02-18T04:43:19.523Z,1.30
2023-02-18T04:46:22.468Z,1.37
2023-02-18T04:49:25.458Z,1.53
2023-02-18T04:52:28.369Z,1.20
2023-02-18T04:55:32.463Z,1.53
2023-02-18T04:58:35.195Z,1.10
2023-02-18T05:01:38.145Z,0.97
2023-02-18T05:04:41.083Z,1.00
2023-02-18T05:07:43.948Z,1.07
2023-02-18T05:10:48.041Z,1.13
2023-02-18T05:13:50.798Z,1.20
2023-02-18T05:16:53.591Z,1.00
2023-02-18T05:19:56.314Z,0.90
2023-02-18T05:22:59.222Z,1.17
2023-02-18T05:26:03.302Z,0.70
2023-02-18T05:29:06.478Z,0.63
2023-02-18T05:32:09.239Z,0.80
2023-02-18T05:35:12.172Z,0.73
2023-02-18T05:38:14.943Z,0.80
2023-02-18T05:41:19.057Z,0.77
2023-02-18T05:44:31.102Z,0.50
2023-02-18T05:47:33.887Z,0.50
2023-02-18T05:50:36.683Z,0.87
2023-02-18T05:53:39.449Z,0.57
2023-02-18T05:56:43.796Z,0.57
2023-02-18T05:59:46.553Z,0.50
2023-02-18T06:02:49.446Z,0.87
2023-02-18T06:05:53.193Z,1.10
2023-02-18T06:08:55.956Z,2.30
2023-02-18T06:12:00.101Z,0.80
2023-02-18T06:15:02.870Z,2.33
2023-02-18T06:18:06.087Z,1.43
2023-02-18T06:21:08.864Z,1.47
2023-02-18T06:24:11.617Z,1.53
2023-02-18T06:27:15.715Z,1.03
2023-02-18T06:30:18.858Z,0.60
2023-02-18T06:33:21.637Z,0.50
2023-02-18T06:36:24.433Z,0.40
2023-02-18T06:39:27.176Z,0.50
2023-02-18T06:42:31.268Z,1.20
2023-02-18T06:45:34.001Z,0.40
2023-02-18T06:48:36.762Z,0.50
2023-02-18T06:51:39.679Z,0.67
2023-02-18T06:54:42.410Z,0.40
2023-02-18T06:57:46.512Z,0.50
2023-02-18T07:00:49.297Z,0.40
2023-02-18T07:03:52.111Z,0.40
2023-02-18T07:06:54.930Z,0.40
2023-02-18T07:09:57.683Z,0.60
2023-02-18T07:13:01.819Z,0.47
2023-02-18T07:16:04.833Z,0.40
2023-02-18T07:19:07.650Z,0.20
2023-02-18T07:22:10.414Z,0.40
2023-02-18T07:25:13.311Z,0.33
2023-02-18T07:28:17.569Z,0.30
2023-02-18T07:31:20.406Z,0.37
2023-02-18T07:34:23.298Z,0.47
2023-02-18T07:37:26.113Z,0.37
2023-02-18T07:40:29.129Z,0.40
2023-02-18T07:43:33.386Z,0.40
2023-02-18T07:46:36.123Z,0.60
2023-02-18T07:49:38.864Z,0.30
2023-02-18T07:52:41.645Z,0.40
2023-02-18T07:55:50.478Z,0.30
2023-02-18T07:58:54.573Z,0.30
2023-02-18T08:01:57.462Z,0.30
2023-02-18T08:05:00.249Z,0.50
2023-02-18T08:08:02.993Z,0.40
2023-02-18T08:11:18.656Z,0.60
2023-02-18T08:14:23.461Z,0.57
2023-02-18T08:17:26.270Z,0.30
2023-02-18T08:20:30.552Z,0.60
2023-02-18T08:23:33.722Z,0.60
2023-02-18T08:26:36.578Z,0.57
2023-02-18T08:29:40.650Z,0.40
2023-02-18T08:32:43.413Z,0.30
2023-02-18T08:35:46.991Z,0.40
2023-02-18T08:38:49.851Z,0.30
2023-02-18T08:41:52.674Z,0.30
2023-02-18T08:44:56.794Z,0.50
2023-02-18T08:48:18.285Z,0.30
2023-02-18T08:51:24.239Z,0.27
2023-02-18T08:54:26.996Z,0.40
2023-02-18T08:57:30.035Z,0.40
2023-02-18T09:00:34.773Z,0.30
2023-02-18T09:03:37.722Z,0.60
2023-02-18T09:06:40.962Z,1.10
2023-02-18T09:09:43.745Z,0.43
2023-02-18T09:12:46.529Z,0.30
2023-02-18T09:15:59.098Z,0.50
2023-02-18T09:19:02.019Z,0.40
2023-02-18T09:22:04.765Z,0.70
2023-02-18T09:25:08.374Z,1.03
2023-02-18T09:28:11.125Z,0.50
2023-02-18T09:31:17.091Z,0.87
2023-02-18T09:34:19.998Z,1.00
2023-02-18T09:37:22.751Z,0.80
2023-02-18T09:40:28.784Z,0.40
2023-02-18T09:43:35.733Z,0.60
2023-02-18T09:46:44.069Z,0.90
2023-02-18T09:49:52.780Z,0.50
2023-02-18T09:52:56.055Z,0.93
2023-02-18T09:56:00.329Z,0.73
2023-02-18T09:59:08.160Z,2.20
2023-02-18T10:02:17.399Z,0.80
2023-02-18T10:05:20.586Z,1.13
2023-02-18T10:08:26.834Z,0.50
2023-02-18T10:11:32.629Z,0.50
2023-02-18T10:14:35.938Z,0.50
2023-02-18T10:17:40.287Z,0.60
2023-02-18T10:20:43.093Z,0.60
2023-02-18T10:23:54.105Z,1.17
2023-02-18T10:26:57.404Z,0.93
2023-02-18T10:30:08.549Z,0.60
2023-02-18T10:33:32.129Z,0.50
2023-02-18T10:36:43.003Z,0.40
2023-02-18T10:40:06.170Z,0.70
2023-02-18T10:43:20.555Z,0.43
2023-02-18T10:46:31.094Z,0.67
2023-02-18T10:49:57.782Z,1.20
2023-02-18T10:53:03.863Z,0.50
2023-02-18T10:56:08.264Z,0.53
2023-02-18T10:59:14.796Z,0.60
2023-02-18T11:02:20.140Z,0.60
2023-02-18T11:05:28.047Z,0.40
2023-02-18T11:08:40.813Z,0.40
2023-02-18T11:11:45.694Z,0.57
2023-02-18T11:15:04.791Z,0.90
2023-02-18T11:18:15.582Z,0.50
2023-02-18T11:21:30.031Z,0.53
2023-02-18T11:24:32.868Z,1.20
2023-02-18T11:27:43.203Z,0.40
2023-02-18T11:30:48.882Z,0.90
2023-02-18T11:33:53.989Z,0.60
2023-02-18T11:37:10.623Z,0.53
2023-02-18T11:40:23.906Z,0.50
2023-02-18T11:43:30.448Z,0.60
2023-02-18T11:46:33.386Z,0.43
2023-02-18T11:49:36.502Z,0.40
2023-02-18T11:52:42.603Z,0.70
2023-02-18T11:55:56.204Z,0.43
2023-02-18T11:58:59.703Z,0.40
2023-02-18T12:02:14.865Z,0.53
2023-02-18T12:05:22.475Z,0.30
2023-02-18T12:08:29.400Z,0.30
2023-02-18T12:11:36.898Z,0.30
2023-02-18T12:14:39.784Z,0.60
2023-02-18T12:18:04.576Z,0.47
2023-02-18T12:21:19.133Z,0.70
2023-02-18T12:24:35.694Z,0.87
2023-02-18T12:27:44.258Z,0.40
2023-02-18T12:31:07.481Z,0.50
2023-02-18T12:34:24.339Z,0.37
2023-02-18T12:37:52.951Z,0.30
2023-02-18T12:41:23.269Z,0.30
2023-02-18T12:44:37.855Z,0.43
2023-02-18T12:47:53.696Z,0.57
2023-02-18T12:51:19.199Z,0.57
2023-02-18T12:54:40.622Z,0.50
2023-02-18T12:57:49.148Z,0.50
2023-02-18T13:01:05.458Z,0.80
2023-02-18T13:04:26.820Z,0.30
2023-02-18T13:07:49.276Z,0.60
2023-02-18T13:11:09.216Z,0.50
2023-02-18T13:14:19.516Z,0.83
2023-02-18T13:17:25.371Z,0.27
2023-02-18T13:20:36.058Z,0.50
2023-02-18T13:23:43.819Z,0.63
2023-02-18T13:26:50.398Z,0.53
2023-02-18T13:30:08.361Z,0.40
2023-02-18T13:33:19.048Z,0.93
2023-02-18T13:36:35.045Z,0.30
2023-02-18T13:39:39.984Z,0.60
2023-02-18T13:42:42.899Z,0.40
2023-02-18T13:46:04.752Z,0.70
2023-02-18T13:49:12.983Z,0.43
2023-02-18T13:52:21.037Z,0.53
2023-02-18T13:55:28.482Z,0.50
2023-02-18T13:58:37.843Z,0.40
2023-02-18T14:01:45.516Z,0.63
2023-02-18T14:04:53.293Z,0.40
2023-02-18T14:08:12.143Z,0.50
2023-02-18T14:11:47.243Z,0.50
2023-02-18T14:14:50.325Z,0.50
2023-02-18T14:18:10.560Z,0.40
2023-02-18T14:21:37.019Z,0.83
2023-02-18T14:24:49.417Z,0.33
2023-02-18T14:27:54.772Z,0.60
2023-02-18T14:30:58.749Z,0.80
2023-02-18T14:34:33.301Z,0.60
2023-02-18T14:38:04.847Z,0.47
2023-02-18T14:41:30.054Z,0.50
2023-02-18T14:44:54.821Z,0.63
2023-02-18T14:48:23.232Z,0.40
2023-02-18T14:51:31.001Z,0.50
2023-02-18T14:54:34.042Z,0.47
2023-02-18T14:57:42.089Z,0.60
2023-02-18T15:00:45.267Z,0.70
2023-02-18T15:03:49.413Z,0.50
2023-02-18T15:07:02.191Z,0.60
2023-02-18T15:10:05.465Z,0.40
2023-02-18T15:13:15.316Z,0.73
2023-02-18T15:16:24.669Z,1.10
2023-02-18T15:19:30.161Z,0.70
2023-02-18T15:22:36.609Z,0.80
2023-02-18T15:25:40.622Z,0.70
2023-02-18T15:28:54.474Z,0.53
2023-02-18T15:31:59.147Z,0.40
2023-02-18T15:35:15.724Z,0.60
2023-02-18T15:38:21.915Z,0.50
2023-02-18T15:41:25.168Z,0.47
2023-02-18T15:44:30.980Z,0.60
2023-02-18T15:47:34.491Z,0.50
2023-02-18T15:50:46.088Z,0.30
2023-02-18T15:53:53.287Z,0.60
2023-02-18T15:56:58.026Z,0.40
2023-02-18T16:00:15.597Z,0.67
2023-02-18T16:03:22.801Z,0.70
2023-02-18T16:06:28.623Z,1.10
2023-02-18T16:09:34.961Z,1.00
2023-02-18T16:12:40.433Z,0.80
2023-02-18T16:15:45.792Z,0.50
2023-02-18T16:18:48.845Z,0.50
2023-02-18T16:21:51.709Z,0.30
2023-02-18T16:25:00.774Z,0.63
2023-02-18T16:28:08.715Z,0.60
2023-02-18T16:31:12.124Z,1.00
2023-02-18T16:34:15.049Z,0.80
2023-02-18T16:37:35.589Z,0.97
2023-02-18T16:40:41.225Z,0.60
2023-02-18T16:43:44.480Z,0.53
2023-02-18T16:46:47.364Z,0.80
2023-02-18T16:49:52.158Z,0.90
2023-02-18T16:52:55.135Z,0.40
2023-02-18T16:56:00.899Z,0.90
2023-02-18T16:59:03.979Z,0.80
2023-02-18T17:02:17.073Z,0.87
2023-02-18T17:05:26.827Z,0.63
2023-02-18T17:08:30.050Z,0.73
2023-02-18T17:11:36.337Z,0.43
2023-02-18T17:14:39.365Z,0.40
2023-02-18T17:17:42.371Z,0.50
2023-02-18T17:20:48.314Z,0.50
2023-02-18T17:23:51.914Z,0.73
2023-02-18T17:26:56.159Z,1.07
2023-02-18T17:29:59.052Z,0.60
2023-02-18T17:33:03.345Z,0.43
2023-02-18T17:36:07.286Z,0.60
2023-02-18T17:39:14.600Z,0.50
2023-02-18T17:42:18.965Z,0.53
2023-02-18T17:45:28.743Z,0.70
2023-02-18T17:48:31.618Z,0.50
2023-02-18T17:51:36.778Z,0.67
2023-02-18T17:54:39.636Z,0.60
2023-02-18T17:57:44.926Z,0.57
2023-02-18T18:00:49.689Z,0.50
2023-02-18T18:03:52.529Z,0.50
2023-02-18T18:06:55.496Z,0.60
2023-02-18T18:09:58.364Z,0.30
2023-02-18T18:13:04.467Z,0.70
2023-02-18T18:16:07.741Z,0.50
2023-02-18T18:19:10.599Z,0.50
2023-02-18T18:22:13.483Z,0.50
2023-02-18T18:25:23.904Z,0.73
2023-02-18T18:28:32.964Z,0.50
2023-02-18T18:31:37.498Z,0.50
2023-02-18T18:34:40.411Z,0.50
2023-02-18T18:37:43.276Z,0.60
2023-02-18T18:40:47.193Z,0.80
2023-02-18T18:43:51.632Z,0.80
2023-02-18T18:46:54.514Z,0.60
2023-02-18T18:49:57.400Z,0.60
2023-02-18T18:53:00.459Z,0.60
2023-02-18T18:56:05.476Z,0.60
2023-02-18T18:59:10.148Z,0.40
2023-02-18T19:02:16.754Z,1.13
2023-02-18T19:05:23.279Z,1.00
2023-02-18T19:08:26.452Z,0.57
2023-02-18T19:11:29.416Z,0.80
2023-02-18T19:14:33.590Z,0.47
2023-02-18T19:17:36.474Z,0.90
2023-02-18T19:20:40.534Z,0.97
2023-02-18T19:23:44.301Z,0.90
2023-02-18T19:26:47.158Z,0.63
2023-02-18T19:29:54.273Z,0.97
2023-02-18T19:32:59.329Z,0.70
2023-02-18T19:36:07.580Z,0.73
2023-02-18T19:39:10.510Z,0.70
2023-02-18T19:42:13.410Z,0.63
2023-02-18T19:45:19.021Z,0.70
2023-02-18T19:48:23.295Z,1.17
2023-02-18T19:51:26.885Z,0.60
2023-02-18T19:54:29.778Z,1.20
2023-02-18T19:57:34.609Z,0.80
2023-02-18T20:00:40.427Z,0.93
2023-02-18T20:03:44.110Z,0.77
2023-02-18T20:06:46.997Z,0.70
2023-02-18T20:09:52.562Z,0.70
2023-02-18T20:12:55.494Z,0.80
2023-02-18T20:15:59.756Z,0.83
2023-02-18T20:19:02.691Z,0.93
2023-02-18T20:22:07.383Z,0.67
2023-02-18T20:25:10.362Z,1.03
2023-02-18T20:28:13.239Z,0.80
2023-02-18T20:31:17.957Z,0.67
2023-02-18T20:34:21.193Z,0.83
2023-02-18T20:37:24.059Z,0.93
2023-02-18T20:40:27.150Z,0.70
2023-02-18T20:43:32.840Z,0.83
2023-02-18T20:46:37.880Z,0.80
2023-02-18T20:49:41.501Z,0.70
2023-02-18T20:52:44.408Z,0.93
2023-02-18T20:55:48.128Z,1.17
2023-02-18T20:58:51.901Z,0.70
2023-02-18T21:01:56.626Z,0.67
2023-02-18T21:04:59.510Z,0.70
2023-02-18T21:08:02.382Z,0.70
2023-02-18T21:11:07.260Z,0.83
2023-02-18T21:14:10.555Z,0.80
2023-02-18T21:17:14.807Z,0.60
2023-02-18T21:20:17.898Z,0.73
2023-02-18T21:23:21.083Z,0.60
2023-02-18T21:26:26.401Z,1.47
2023-02-18T21:29:29.626Z,1.20
2023-02-18T21:32:33.881Z,0.80
2023-02-18T21:35:37.463Z,0.50
2023-02-18T21:38:41.303Z,0.87
2023-02-18T21:41:44.182Z,0.70
2023-02-18T21:44:48.143Z,0.70
2023-02-18T21:47:52.341Z,0.70
2023-02-18T21:50:55.225Z,0.80
2023-02-18T21:53:58.178Z,0.80
2023-02-18T21:57:03.766Z,1.17
2023-02-18T22:00:19.530Z,0.87
2023-02-18T22:03:24.525Z,1.17
2023-02-18T22:06:27.439Z,0.80
2023-02-18T22:09:30.490Z,1.00
2023-02-18T22:12:33.973Z,0.93
2023-02-18T22:15:36.885Z,1.00
2023-02-18T22:18:41.080Z,0.90
2023-02-18T22:21:45.460Z,0.83
2023-02-18T22:24:48.460Z,0.80
2023-02-18T22:27:51.306Z,0.70
2023-02-18T22:30:54.156Z,0.93
2023-02-18T22:34:00.371Z,0.50
2023-02-18T22:37:03.234Z,0.87
2023-02-18T22:40:06.937Z,0.80
2023-02-18T22:43:09.840Z,0.77
2023-02-18T22:46:14.557Z,1.00
2023-02-18T22:49:18.931Z,0.90
2023-02-18T22:52:21.799Z,0.80
2023-02-18T22:55:24.858Z,0.80
2023-02-18T22:58:27.928Z,1.10
2023-02-18T23:01:33.120Z,0.80
2023-02-18T23:04:39.922Z,0.80
2023-02-18T23:07:42.874Z,0.93
2023-02-18T23:10:45.799Z,1.20
2023-02-18T23:14:09.508Z,0.80
2023-02-18T23:17:17.589Z,1.10
2023-02-18T23:20:41.908Z,1.13
2023-02-18T23:23:45.194Z,0.90
2023-02-18T23:26:48.548Z,1.10
2023-02-18T23:29:52.151Z,1.10
2023-02-18T23:32:55.054Z,1.20
2023-02-18T23:36:09.661Z,0.90
2023-02-18T23:39:14.103Z,0.83
2023-02-18T23:42:17.127Z,1.60
2023-02-18T23:45:20.083Z,2.30
2023-02-18T23:48:23.028Z,2.47
2023-02-18T23:51:27.789Z,2.40
2023-02-18T23:54:30.670Z,2.73
2023-02-18T23:57:34.007Z,1.90
